Silver Etrema — V7QV9 — position and weather

sailwx.info

Track history (hours):
 
Tides and Currents Weather Stations Pressure Air Temp Water Temp Dewpoint Dewpoint Depression Visibility Wind Speed Wind Dir Waves Ship Positions

Silver Etrema

Last reported at 2018-Jun-14 21:52 UTC. Time now 2018-Jun-18 03:50 UTC.
Position N 49°50' W 004°12'.

Length 183 m; draft 11.3 m.

Type: Tanker. MMSI: 538006745.

Date/timePositionNaut miles runAvg speedWind from/ knotsBaromVisibWave heightAir tempDewpointWater temp
2018-Jun-14 21:52N 49°50' W 004°12'1511.1
2018-Jun-14 20:29N 49°53' W 003°48'510.2
2018-Jun-14 19:59N 49°53' W 003°40'5 9.9
2018-Jun-14 19:30N 49°54' W 003°33'5 9.6
2018-Jun-14 19:00N 49°55' W 003°26'5 9.8
2018-Jun-14 18:27N 49°56' W 003°18'4 9.9
2018-Jun-14 18:00N 49°57' W 003°11'510.2
2018-Jun-14 17:30N 49°58' W 003°03'510.7
2018-Jun-14 17:00N 49°59' W 002°55'611.5
2018-Jun-14 16:30N 50°01' W 002°47'612.5
2018-Jun-14 16:00N 50°03' W 002°37'713.5
2018-Jun-14 15:30N 50°05' W 002°27'714.4
2018-Jun-14 15:00N 50°07' W 002°17'815.3
2018-Jun-14 14:28N 50°09' W 002°04'1015.7
2018-Jun-14 13:50N 50°12' W 001°49'515.6
2018-Jun-14 13:30N 50°13' W 001°42'714.9
2018-Jun-14 13:01N 50°15' W 001°30'714.3
2018-Jun-14 12:30N 50°17' W 001°19'713.5
2018-Jun-14 11:59N 50°18' W 001°09'712.2
2018-Jun-14 11:26N 50°20' W 000°59'32 9.4
2018-Jun-14 08:03N 50°28' W 000°10'1 9.5
2018-Jun-14 07:59N 50°29' W 000°09'5 9.7
2018-Jun-14 07:29N 50°30' W 000°02'610.3
2018-Jun-14 06:56N 50°31' E 000°07'511.1
2018-Jun-14 06:27N 50°33' E 000°15'611.9
2018-Jun-14 05:59N 50°34' E 000°23'612.6
2018-Jun-14 05:30N 50°36' E 000°32'713.0
2018-Jun-14 05:00N 50°39' E 000°41'713.1
2018-Jun-14 04:30N 50°43' E 000°50'612.9
2018-Jun-14 04:00N 50°46' E 000°58'612.5
2018-Jun-14 03:30N 50°50' E 001°06'612.2
2018-Jun-14 03:00N 50°53' E 001°14'611.3
2018-Jun-14 02:30N 50°57' E 001°21'510.7
2018-Jun-14 02:00N 51°01' E 001°26'5 9.6
2018-Jun-14 01:30N 51°05' E 001°31'4 8.5
2018-Jun-14 01:00N 51°08' E 001°36'4 8.0
2018-Jun-14 00:30N 51°11' E 001°41'4 8.8
2018-Jun-14 00:00N 51°14' E 001°46'5 9.6
2018-Jun-13 23:30N 51°18' E 001°49'510.4
2018-Jun-13 23:00N 51°23' E 001°54'611.4
2018-Jun-13 22:30N 51°28' E 001°58'612.3
2018-Jun-13 22:00N 51°32' E 002°05'713.0
2018-Jun-13 21:30N 51°37' E 002°12'713.6
2018-Jun-13 21:00N 51°42' E 002°20'713.9
2018-Jun-13 20:30N 51°47' E 002°27'714.0
2018-Jun-13 20:01N 51°52' E 002°35'713.9
2018-Jun-13 19:30N 51°57' E 002°43'713.3
2018-Jun-13 19:00N 52°01' E 002°51'612.8
2018-Jun-13 18:30N 52°02' E 003°01'612.4
2018-Jun-13 18:00N 52°03' E 003°11'612.3
2018-Jun-13 17:30N 52°03' E 003°21'612.3
2018-Jun-13 17:00N 52°03' E 003°31'612.1
2018-Jun-13 16:30N 52°03' E 003°42'611.4
2018-Jun-13 16:00N 52°03' E 003°51'4 7.2
2018-Jun-13 15:30N 52°02' E 003°56'4 8.5
2018-Jun-13 15:00N 51°60' E 004°02'4 8.8
2018-Jun-13 14:30N 51°58' E 004°08'4 7.4
2018-Jun-13 14:00N 51°56' E 004°13'3 6.3
2018-Jun-13 13:30N 51°54' E 004°17'3 5.7
2018-Jun-13 13:00N 51°54' E 004°22'1 1.4
2018-Jun-13 12:30N 51°53' E 004°22'0 0.2
2018-Jun-13 11:56N 51°53' E 004°22'0 0.0
2018-Jun-13 11:23N 51°53' E 004°22'0 0.0
2018-Jun-13 10:56N 51°53' E 004°22'0 0.0
2018-Jun-13 09:53N 51°53' E 004°22'0 0.0
2018-Jun-13 09:29N 51°53' E 004°22'0 0.0
2018-Jun-13 08:59N 51°53' E 004°22'0 0.0
2018-Jun-13 08:23N 51°53' E 004°22'0 0.0
2018-Jun-13 07:59N 51°53' E 004°22'0 0.0
2018-Jun-13 07:14N 51°53' E 004°22'0 0.0
2018-Jun-13 06:41N 51°53' E 004°22'0 0.0
2018-Jun-13 06:23N 51°53' E 004°22'0 0.0
2018-Jun-13 05:59N 51°53' E 004°22'0 0.0
2018-Jun-13 05:05N 51°53' E 004°22'0 0.1
2018-Jun-13 04:59N 51°53' E 004°22'0 0.0
2018-Jun-13 04:20N 51°53' E 004°22'0 0.0
2018-Jun-13 03:59N 51°53' E 004°22'0 0.0
2018-Jun-13 03:23N 51°53' E 004°22'0 0.0
2018-Jun-13 02:59N 51°53' E 004°22'0 0.0
2018-Jun-13 02:23N 51°53' E 004°22'0 0.0
2018-Jun-13 01:50N 51°53' E 004°22'0 0.0
2018-Jun-13 01:26N 51°53' E 004°22'0 0.0
2018-Jun-13 00:59N 51°53' E 004°22'0 0.0
2018-Jun-13 00:29N 51°53' E 004°22'0 0.0
2018-Jun-12 23:59N 51°53' E 004°22'0 0.0
2018-Jun-12 23:05N 51°53' E 004°22'0 0.1
2018-Jun-12 22:59N 51°53' E 004°22'0 0.0
2018-Jun-12 22:17N 51°53' E 004°22'0 0.0
2018-Jun-12 21:56N 51°53' E 004°22'0 0.0
2018-Jun-12 21:23N 51°53' E 004°22'0 0.0
2018-Jun-12 20:56N 51°53' E 004°22'0 0.0
2018-Jun-12 20:17N 51°53' E 004°22'0 0.0
2018-Jun-12 19:59N 51°53' E 004°22'0 0.0
2018-Jun-12 19:23N 51°53' E 004°22'0 0.0
2018-Jun-12 18:56N 51°53' E 004°22'0 0.0
2018-Jun-12 18:23N 51°53' E 004°22'0 0.0
2018-Jun-12 17:59N 51°53' E 004°22'0 0.0
2018-Jun-12 17:29N 51°53' E 004°22'0 0.0
2018-Jun-12 16:59N 51°53' E 004°22'0 0.0
2018-Jun-12 16:23N 51°53' E 004°22'0 0.0
2018-Jun-12 15:59N 51°53' E 004°22'0 0.0
2018-Jun-12 15:29N 51°53' E 004°22'0 0.0
2018-Jun-12 14:59N 51°53' E 004°22'0 0.0
2018-Jun-12 14:29N 51°53' E 004°22'0 0.0
2018-Jun-12 13:59N 51°53' E 004°22'0 0.0
2018-Jun-12 13:20N 51°53' E 004°22'0 0.0
2018-Jun-12 12:59N 51°53' E 004°22'0 0.0
2018-Jun-12 12:29N 51°53' E 004°22'0 0.0
2018-Jun-12 11:23N 51°53' E 004°22'0 0.0
2018-Jun-12 10:53N 51°53' E 004°22'0 0.0
2018-Jun-12 09:53N 51°53' E 004°22'0 0.0
2018-Jun-12 09:17N 51°53' E 004°22'0 0.0
2018-Jun-12 08:50N 51°53' E 004°22'0 0.0
2018-Jun-12 08:29N 51°53' E 004°22'0 0.0
2018-Jun-12 07:59N 51°53' E 004°22'0 0.0
2018-Jun-12 06:23N 51°53' E 004°22'0 0.0
2018-Jun-12 05:35N 51°53' E 004°22'0 0.1
2018-Jun-12 05:29N 51°53' E 004°22'0 0.0
2018-Jun-12 04:56N 51°53' E 004°22'0 0.0
2018-Jun-12 04:29N 51°53' E 004°22'0 0.0
2018-Jun-12 03:23N 51°53' E 004°22'0 0.0
2018-Jun-12 02:14N 51°53' E 004°22'0 0.0
2018-Jun-12 01:38N 51°53' E 004°22'0 0.0
2018-Jun-12 00:44N 51°53' E 004°22'0 0.0
2018-Jun-12 00:29N 51°53' E 004°22'0 0.0
2018-Jun-11 23:56N 51°53' E 004°22'0 0.0
2018-Jun-11 23:23N 51°53' E 004°22'0 0.0
2018-Jun-11 22:56N 51°53' E 004°22'0 0.0
2018-Jun-11 22:29N 51°53' E 004°22'0 0.0
2018-Jun-11 21:56N 51°53' E 004°22'0 0.0
2018-Jun-11 21:14N 51°53' E 004°22'0 0.0
2018-Jun-11 20:47N 51°53' E 004°22'0 0.0
2018-Jun-11 20:29N 51°53' E 004°22'0 0.0
2018-Jun-11 19:53N 51°53' E 004°22'0 0.0
2018-Jun-11 19:29N 51°53' E 004°22'0 0.0
2018-Jun-11 18:56N 51°53' E 004°22'0 0.0
2018-Jun-11 18:23N 51°53' E 004°22'0 0.0
2018-Jun-11 17:41N 51°53' E 004°22'0 0.0
2018-Jun-11 17:26N 51°53' E 004°22'0 0.0
2018-Jun-11 16:59N 51°53' E 004°22'0 0.0
2018-Jun-11 16:29N 51°53' E 004°22'0 0.0
2018-Jun-11 15:50N 51°53' E 004°22'0 0.0
2018-Jun-11 15:29N 51°53' E 004°22'0 0.0
2018-Jun-11 14:50N 51°53' E 004°22'0 0.0
2018-Jun-11 14:29N 51°53' E 004°22'0 0.0
2018-Jun-11 13:59N 51°53' E 004°22'0 0.0
2018-Jun-11 13:26N 51°53' E 004°22'0 0.0
2018-Jun-11 12:53N 51°53' E 004°22'0 0.0
2018-Jun-11 12:29N 51°53' E 004°22'0 0.0
2018-Jun-11 11:53N 51°53' E 004°22'0 0.0
2018-Jun-11 11:26N 51°53' E 004°22'0 0.0
2018-Jun-11 09:50N 51°53' E 004°22'0 0.0
2018-Jun-11 09:11N 51°53' E 004°22'0 0.0
2018-Jun-11 06:11N 51°53' E 004°22'0 0.0
2018-Jun-11 05:47N 51°53' E 004°22'0 0.0
2018-Jun-11 04:08N 51°53' E 004°22'0 0.0
2018-Jun-11 03:47N 51°53' E 004°22'0 0.0
2018-Jun-11 02:26N 51°53' E 004°22'0 0.0
2018-Jun-11 01:44N 51°53' E 004°22'0 0.0
2018-Jun-11 01:29N 51°53' E 004°22'0 0.0
2018-Jun-11 00:59N 51°53' E 004°22'0 0.0
2018-Jun-11 00:29N 51°53' E 004°22'0 0.0
2018-Jun-10 23:59N 51°53' E 004°22'0 0.0
2018-Jun-10 23:26N 51°53' E 004°22'0 0.0
2018-Jun-10 22:59N 51°53' E 004°22'0 0.0
2018-Jun-10 21:29N 51°53' E 004°22'0 0.0
2018-Jun-10 20:56N 51°53' E 004°22'0 0.0
2018-Jun-10 20:29N 51°53' E 004°22'0 0.0
2018-Jun-10 19:26N 51°53' E 004°22'0 0.0
2018-Jun-10 18:59N 51°53' E 004°22'0 0.0
2018-Jun-10 18:29N 51°53' E 004°22'0 0.0
2018-Jun-10 17:59N 51°53' E 004°22'0 0.0
2018-Jun-10 17:29N 51°53' E 004°22'0 0.0
2018-Jun-10 16:59N 51°53' E 004°22'0 0.0
2018-Jun-10 16:26N 51°53' E 004°22'0 0.0
2018-Jun-10 15:56N 51°53' E 004°22'0 0.0
2018-Jun-10 15:29N 51°53' E 004°22'0 0.0
2018-Jun-10 14:53N 51°53' E 004°22'0 0.0
2018-Jun-10 14:29N 51°53' E 004°22'0 0.0
2018-Jun-10 13:23N 51°53' E 004°22'0 0.0
2018-Jun-10 12:59N 51°53' E 004°22'0 0.0
2018-Jun-10 12:29N 51°53' E 004°22'0 0.0
2018-Jun-10 11:59N 51°53' E 004°22'0 0.0
2018-Jun-10 11:29N 51°53' E 004°22'0 0.0
2018-Jun-10 10:59N 51°53' E 004°22'0 0.0
2018-Jun-10 10:23N 51°53' E 004°22'0 0.0
2018-Jun-10 09:59N 51°53' E 004°22'0 0.0
2018-Jun-10 09:29N 51°53' E 004°22'0 0.0
2018-Jun-10 08:59N 51°53' E 004°22'0 0.0
2018-Jun-10 08:14N 51°53' E 004°22'0 0.0
2018-Jun-10 07:59N 51°53' E 004°22'0 0.0
2018-Jun-10 07:26N 51°53' E 004°22'0 0.0
2018-Jun-10 06:56N 51°53' E 004°22'0 0.0
2018-Jun-10 06:11N 51°53' E 004°22'0 0.0
2018-Jun-10 05:53N 51°53' E 004°22'0 0.0
2018-Jun-10 05:23N 51°53' E 004°22'0 0.0
2018-Jun-10 04:50N 51°53' E 004°22'0 0.0
2018-Jun-10 04:29N 51°53' E 004°22'0 0.0
2018-Jun-10 03:56N 51°53' E 004°22'0 0.0
2018-Jun-10 03:23N 51°53' E 004°22'0 0.0
2018-Jun-10 02:56N 51°53' E 004°22'0 0.0
2018-Jun-10 02:29N 51°53' E 004°22'0 0.0
2018-Jun-10 01:53N 51°53' E 004°22'0 0.0
2018-Jun-10 01:29N 51°53' E 004°22'0 0.0
2018-Jun-10 00:59N 51°53' E 004°22'0 0.0
2018-Jun-10 00:31N 51°53' E 004°22'0 0.0
2018-Jun-10 00:01N 51°53' E 004°22'0 0.9
2018-Jun-09 23:31N 51°54' E 004°22'1 1.4
2018-Jun-09 23:00N 51°54' E 004°21'4 7.5
2018-Jun-09 22:30N 51°55' E 004°15'611.0
2018-Jun-09 22:00N 51°58' E 004°08'510.6
2018-Jun-09 21:30N 51°60' E 003°60'510.6
2018-Jun-09 21:00N 51°60' E 003°51'4 8.6
2018-Jun-09 20:31N 51°59' E 003°45'5 9.3
2018-Jun-09 20:00N 51°58' E 003°37'510.6
2018-Jun-09 19:30N 51°57' E 003°29'510.1
2018-Jun-09 19:00N 51°56' E 003°21'510.5
2018-Jun-09 18:30N 51°55' E 003°12'510.7
2018-Jun-09 18:00N 51°54' E 003°04'511.0
2018-Jun-09 17:31N 51°54' E 002°55'4 8.7
2018-Jun-09 17:00N 51°57' E 002°50'612.3
2018-Jun-09 16:30N 52°03' E 002°52'612.4
2018-Jun-09 16:00N 52°08' E 002°57'1312.6
2018-Jun-09 15:00N 52°19' E 003°08'612.5
2018-Jun-09 14:30N 52°24' E 003°13'612.5
2018-Jun-09 14:00N 52°30' E 003°19'713.2
2018-Jun-09 13:30N 52°35' E 003°26'612.9
2018-Jun-09 13:00N 52°40' E 003°32'612.6
2018-Jun-09 12:30N 52°45' E 003°38'612.4
2018-Jun-09 12:00N 52°50' E 003°45'612.4
2018-Jun-09 11:30N 52°55' E 003°51'612.1
2018-Jun-09 11:00N 52°59' E 003°58'612.4
2018-Jun-09 10:30N 53°03' E 004°06'612.7
2018-Jun-09 10:00N 53°07' E 004°14'612.9
2018-Jun-09 09:30N 53°11' E 004°22'713.2
2018-Jun-09 09:00N 53°17' E 004°27'713.8
2018-Jun-09 08:31N 53°23' E 004°32'714.1
2018-Jun-09 08:00N 53°30' E 004°36'713.9
2018-Jun-09 07:31N 53°37' E 004°39'713.5
2018-Jun-09 07:00N 53°43' E 004°43'713.5
2018-Jun-09 06:29N 53°49' E 004°48'713.5
2018-Jun-09 06:00N 53°55' E 004°52'913.2
2018-Jun-09 05:17N 54°04' E 004°57'512.8
2018-Jun-09 04:55N 54°05' E 005°05'613.3
2018-Jun-09 04:26N 54°06' E 005°16'613.1
2018-Jun-09 04:00N 54°07' E 005°25'712.9
2018-Jun-09 03:29N 54°08' E 005°37'612.9
2018-Jun-09 03:01N 54°09' E 005°47'612.9
2018-Jun-09 02:31N 54°10' E 005°58'612.9
2018-Jun-09 02:00N 54°11' E 006°09'713.3
2018-Jun-09 01:29N 54°11' E 006°21'713.6
2018-Jun-09 00:59N 54°12' E 006°33'713.9
2018-Jun-09 00:30N 54°12' E 006°44'1114.1
2018-Jun-08 23:44N 54°12' E 007°02'414.4
2018-Jun-08 23:29N 54°12' E 007°09'714.4
2018-Jun-08 23:00N 54°12' E 007°20'714.5
2018-Jun-08 22:30N 54°12' E 007°33'713.9
2018-Jun-08 22:00N 54°09' E 007°43'714.3
2018-Jun-08 21:30N 54°05' E 007°53'714.0
2018-Jun-08 21:00N 54°02' E 008°04'612.7
2018-Jun-08 20:30N 54°00' E 008°14'713.6
2018-Jun-08 20:00N 53°59' E 008°26'613.1
2018-Jun-08 19:30N 53°58' E 008°37'510.7
2018-Jun-08 19:00N 53°53' E 008°42'4 8.8
2018-Jun-08 18:30N 53°51' E 008°48'4 8.8
2018-Jun-08 18:00N 53°51' E 008°55'4 8.6
2018-Jun-08 17:30N 53°52' E 009°02'4 8.4
2018-Jun-08 17:00N 53°53' E 009°09'4 7.1
2018-Jun-08 16:29N 53°53' E 009°15'511.1
2018-Jun-08 16:00N 53°49' E 009°22'612.5
2018-Jun-08 15:30N 53°44' E 009°27'612.7
2018-Jun-08 15:00N 53°38' E 009°32'612.7
2018-Jun-08 14:30N 53°34' E 009°41'612.1
2018-Jun-08 14:00N 53°33' E 009°51'4 8.0
2018-Jun-08 13:30N 53°32' E 009°57'1 1.3
2018-Jun-08 12:57N 53°32' E 009°58'0 0.0
2018-Jun-08 12:30N 53°32' E 009°58'0 0.0
2018-Jun-08 12:00N 53°32' E 009°58'0 0.0
2018-Jun-08 11:30N 53°32' E 009°58'0 0.0
2018-Jun-08 11:00N 53°32' E 009°58'0 0.0
2018-Jun-08 10:30N 53°32' E 009°58'0 0.0
2018-Jun-08 09:57N 53°32' E 009°58'0 0.0
2018-Jun-08 09:30N 53°32' E 009°58'0 0.0
2018-Jun-08 09:00N 53°32' E 009°58'0 0.0
2018-Jun-08 08:30N 53°32' E 009°58'0 0.0
2018-Jun-08 08:00N 53°32' E 009°58'0 0.0
2018-Jun-08 07:30N 53°32' E 009°58'0 0.0
2018-Jun-08 07:00N 53°32' E 009°58'0 0.0
2018-Jun-08 06:27N 53°32' E 009°58'0 0.0
2018-Jun-08 06:00N 53°32' E 009°58'0 0.0
2018-Jun-08 05:30N 53°32' E 009°58'0 0.0
2018-Jun-08 05:00N 53°32' E 009°58'0 0.0
2018-Jun-08 04:30N 53°32' E 009°58'0 0.0
2018-Jun-08 04:00N 53°32' E 009°58'0 0.0
2018-Jun-08 03:30N 53°32' E 009°58'0 0.0
2018-Jun-08 03:00N 53°32' E 009°58'0 0.0
2018-Jun-08 02:30N 53°32' E 009°58'0 0.0
2018-Jun-08 02:00N 53°32' E 009°58'0 0.0
2018-Jun-08 01:30N 53°32' E 009°58'0 0.0
2018-Jun-08 01:00N 53°32' E 009°58'0 0.0
2018-Jun-08 00:30N 53°32' E 009°58'0 0.0
2018-Jun-07 23:57N 53°32' E 009°58'0 0.0
2018-Jun-07 23:30N 53°32' E 009°58'0 0.0
2018-Jun-07 23:00N 53°32' E 009°58'0 0.0
2018-Jun-07 22:30N 53°32' E 009°58'0 0.0
2018-Jun-07 22:00N 53°32' E 009°58'0 0.0
2018-Jun-07 21:30N 53°32' E 009°58'0 0.0
2018-Jun-07 21:00N 53°32' E 009°58'0 0.0
2018-Jun-07 20:30N 53°32' E 009°58'0 0.0
2018-Jun-07 20:00N 53°32' E 009°58'0 0.0
2018-Jun-07 19:30N 53°32' E 009°58'0 0.0
2018-Jun-07 19:00N 53°32' E 009°58'0 0.0
2018-Jun-07 18:30N 53°32' E 009°58'0 0.0
2018-Jun-07 18:00N 53°32' E 009°58'0 0.0
2018-Jun-07 17:30N 53°32' E 009°58'0 0.0
2018-Jun-07 17:00N 53°32' E 009°58'0 0.0
2018-Jun-07 16:30N 53°32' E 009°58'0 0.0
2018-Jun-07 16:00N 53°32' E 009°58'0 0.0
2018-Jun-07 15:30N 53°32' E 009°58'0 0.0
2018-Jun-07 15:00N 53°32' E 009°58'0 0.0
2018-Jun-07 14:30N 53°32' E 009°58'0 0.0
2018-Jun-07 14:00N 53°32' E 009°58'0 0.0
2018-Jun-07 13:30N 53°32' E 009°58'0 0.0
2018-Jun-07 13:00N 53°32' E 009°58'0 0.0
2018-Jun-07 12:30N 53°32' E 009°58'0 0.0
2018-Jun-07 12:00N 53°32' E 009°58'0 0.0
2018-Jun-07 11:30N 53°32' E 009°58'0 0.0
2018-Jun-07 11:00N 53°32' E 009°58'0 0.0
2018-Jun-07 10:30N 53°32' E 009°58'0 0.0
2018-Jun-07 10:00N 53°32' E 009°58'0 0.0
2018-Jun-07 09:30N 53°32' E 009°58'0 0.0
2018-Jun-07 08:54N 53°32' E 009°58'0 0.0
2018-Jun-07 08:30N 53°32' E 009°58'0 0.0
2018-Jun-07 08:00N 53°32' E 009°58'0 0.0
2018-Jun-07 07:30N 53°32' E 009°58'0 0.0
2018-Jun-07 07:00N 53°32' E 009°58'0 0.0
2018-Jun-07 06:30N 53°32' E 009°58'0 0.0
2018-Jun-07 06:00N 53°32' E 009°58'0 0.0
2018-Jun-07 05:30N 53°32' E 009°58'0 0.0
2018-Jun-07 05:00N 53°32' E 009°58'0 0.0
2018-Jun-07 04:31N 53°32' E 009°58'0 0.0
2018-Jun-07 04:00N 53°32' E 009°58'1 1.3
2018-Jun-07 03:31N 53°32' E 009°57'1 2.1
2018-Jun-07 03:01N 53°31' E 009°56'1 2.2
2018-Jun-07 02:29N 53°30' E 009°57'0 0.0
2018-Jun-07 01:59N 53°30' E 009°57'0 0.0
2018-Jun-07 01:29N 53°30' E 009°57'0 0.0
2018-Jun-07 00:59N 53°30' E 009°57'0 0.0
2018-Jun-07 00:29N 53°30' E 009°57'0 0.0
2018-Jun-06 23:59N 53°30' E 009°57'0 0.0
2018-Jun-06 23:29N 53°30' E 009°57'0 0.0
2018-Jun-06 22:59N 53°30' E 009°57'0 0.0
2018-Jun-06 22:29N 53°30' E 009°57'0 0.0
2018-Jun-06 21:59N 53°30' E 009°57'0 0.0
2018-Jun-06 21:29N 53°30' E 009°57'0 0.0
2018-Jun-06 20:59N 53°30' E 009°57'0 0.0
2018-Jun-06 20:29N 53°30' E 009°57'0 0.0
2018-Jun-06 19:59N 53°30' E 009°57'0 0.0
2018-Jun-06 19:29N 53°30' E 009°57'0 0.0
2018-Jun-06 18:59N 53°30' E 009°57'0 0.0
2018-Jun-06 18:29N 53°30' E 009°57'0 0.0
2018-Jun-06 17:56N 53°30' E 009°57'0 0.0
2018-Jun-06 17:29N 53°30' E 009°57'0 0.0
2018-Jun-06 16:56N 53°30' E 009°57'0 0.0
2018-Jun-06 16:26N 53°30' E 009°57'0 0.0
2018-Jun-06 15:59N 53°30' E 009°57'0 0.0
2018-Jun-06 15:29N 53°30' E 009°57'0 0.0
2018-Jun-06 14:59N 53°30' E 009°57'0 0.0
2018-Jun-06 14:29N 53°30' E 009°57'0 0.0
2018-Jun-06 13:59N 53°30' E 009°57'0 0.0
2018-Jun-06 13:29N 53°30' E 009°57'0 0.0
2018-Jun-06 12:56N 53°30' E 009°57'0 0.0
2018-Jun-06 12:29N 53°30' E 009°57'0 0.0
2018-Jun-06 11:59N 53°30' E 009°57'0 0.0
2018-Jun-06 11:26N 53°30' E 009°57'0 0.0
2018-Jun-06 10:59N 53°30' E 009°57'0 0.0
2018-Jun-06 10:29N 53°30' E 009°57'0 0.0
2018-Jun-06 09:59N 53°30' E 009°57'0 0.0
2018-Jun-06 09:29N 53°30' E 009°57'0 0.0
2018-Jun-06 08:59N 53°30' E 009°57'0 0.0
2018-Jun-06 08:29N 53°30' E 009°57'0 0.0
2018-Jun-06 07:59N 53°30' E 009°57'0 0.0
2018-Jun-06 07:29N 53°30' E 009°57'0 0.0
2018-Jun-06 06:56N 53°30' E 009°57'0 0.0
2018-Jun-06 06:29N 53°30' E 009°57'0 0.0
2018-Jun-06 05:59N 53°30' E 009°57'0 0.0
2018-Jun-06 05:29N 53°30' E 009°57'0 0.0
2018-Jun-06 04:59N 53°30' E 009°57'0 0.0
2018-Jun-06 04:26N 53°30' E 009°57'0 0.0
2018-Jun-06 03:59N 53°30' E 009°57'0 0.0
2018-Jun-06 03:29N 53°30' E 009°57'0 0.0
2018-Jun-06 02:59N 53°30' E 009°57'0 0.0
2018-Jun-06 02:26N 53°30' E 009°57'0 0.0
2018-Jun-06 01:59N 53°30' E 009°57'0 0.0
2018-Jun-06 01:29N 53°30' E 009°57'0 0.0
2018-Jun-06 00:59N 53°30' E 009°57'0 0.0
2018-Jun-06 00:29N 53°30' E 009°57'0 0.0
2018-Jun-05 23:59N 53°30' E 009°57'0 0.0
2018-Jun-05 23:29N 53°30' E 009°57'0 0.0
2018-Jun-05 22:59N 53°30' E 009°57'0 0.0
2018-Jun-05 22:29N 53°30' E 009°57'0 0.0
2018-Jun-05 21:56N 53°30' E 009°57'0 0.0
2018-Jun-05 21:29N 53°30' E 009°57'0 0.0
2018-Jun-05 20:59N 53°30' E 009°57'0 0.0
2018-Jun-05 20:29N 53°30' E 009°57'0 0.0
2018-Jun-05 19:59N 53°30' E 009°57'0 0.0
2018-Jun-05 19:23N 53°30' E 009°57'0 0.0
2018-Jun-05 18:59N 53°30' E 009°57'0 0.0
2018-Jun-05 18:30N 53°30' E 009°57'0 0.0
2018-Jun-05 18:00N 53°30' E 009°57'1 1.8
2018-Jun-05 17:30N 53°31' E 009°57'3 5.3
2018-Jun-05 17:00N 53°33' E 009°53'5 9.7
2018-Jun-05 16:30N 53°34' E 009°45'612.0
2018-Jun-05 16:00N 53°36' E 009°36'611.5
2018-Jun-05 15:30N 53°41' E 009°30'713.3
2018-Jun-05 15:00N 53°46' E 009°24'714.0
2018-Jun-05 14:30N 53°52' E 009°17'612.1
2018-Jun-05 14:00N 53°53' E 009°07'713.0
2018-Jun-05 13:30N 53°51' E 008°56'612.7
2018-Jun-05 13:00N 53°51' E 008°46'713.3
2018-Jun-05 12:30N 53°56' E 008°39'714.6
2018-Jun-05 12:00N 53°59' E 008°27'815.1
2018-Jun-05 11:30N 53°60' E 008°14'714.0
2018-Jun-05 11:00N 54°00' E 008°03'612.8
2018-Jun-05 10:30N 54°03' E 007°53'611.1
2018-Jun-05 10:00N 54°06' E 007°45'2 3.7
2018-Jun-05 09:30N 54°06' E 007°42'1 2.1
2018-Jun-05 09:00N 54°07' E 007°40'3 6.4
2018-Jun-05 08:30N 54°08' E 007°35'5 8.9
2018-Jun-05 08:00N 54°09' E 007°28'510.4
2018-Jun-05 07:30N 54°09' E 007°19'510.5
2018-Jun-05 07:00N 54°09' E 007°10'510.5
2018-Jun-05 06:30N 54°09' E 007°01'510.6
2018-Jun-05 06:00N 54°09' E 006°52'611.5
2018-Jun-05 05:29N 54°09' E 006°42'611.8
2018-Jun-05 05:00N 54°09' E 006°32'611.8
2018-Jun-05 04:30N 54°08' E 006°22'611.8
2018-Jun-05 04:00N 54°08' E 006°12'1412.1
2018-Jun-05 02:48N 54°06' E 005°48'2512.5
2018-Jun-05 00:47N 54°02' E 005°05'512.6
2018-Jun-05 00:21N 54°02' E 004°56'412.6
2018-Jun-05 00:00N 53°60' E 004°49'611.5
2018-Jun-04 23:30N 53°57' E 004°41'712.5
2018-Jun-04 22:59N 53°53' E 004°32'612.5
2018-Jun-04 22:30N 53°48' E 004°25'  
Track history (hours):
 
Tides and Currents Weather Stations Pressure Air Temp Water Temp Dewpoint Dewpoint Depression Visibility Wind Speed Wind Dir Waves Ship Positions

Silver Etrema

Last reported at 2018-Jun-14 21:52 UTC. Time now 2018-Jun-18 03:50 UTC.
Position N 49°50' W 004°12'.

Length 183 m; draft 11.3 m.

Type: Tanker. MMSI: 538006745.

Date/timePositionNaut miles runAvg speedWind from/ knotsBaromVisibWave heightAir tempDewpointWater temp
2018-Jun-14 21:52N 49°50' W 004°12'1511.1
2018-Jun-14 20:29N 49°53' W 003°48'510.2
2018-Jun-14 19:59N 49°53' W 003°40'5 9.9
2018-Jun-14 19:30N 49°54' W 003°33'5 9.6
2018-Jun-14 19:00N 49°55' W 003°26'5 9.8
2018-Jun-14 18:27N 49°56' W 003°18'4 9.9
2018-Jun-14 18:00N 49°57' W 003°11'510.2
2018-Jun-14 17:30N 49°58' W 003°03'510.7
2018-Jun-14 17:00N 49°59' W 002°55'611.5
2018-Jun-14 16:30N 50°01' W 002°47'612.5
2018-Jun-14 16:00N 50°03' W 002°37'713.5
2018-Jun-14 15:30N 50°05' W 002°27'714.4
2018-Jun-14 15:00N 50°07' W 002°17'815.3
2018-Jun-14 14:28N 50°09' W 002°04'1015.7
2018-Jun-14 13:50N 50°12' W 001°49'515.6
2018-Jun-14 13:30N 50°13' W 001°42'714.9
2018-Jun-14 13:01N 50°15' W 001°30'714.3
2018-Jun-14 12:30N 50°17' W 001°19'713.5
2018-Jun-14 11:59N 50°18' W 001°09'712.2
2018-Jun-14 11:26N 50°20' W 000°59'32 9.4
2018-Jun-14 08:03N 50°28' W 000°10'1 9.5
2018-Jun-14 07:59N 50°29' W 000°09'5 9.7
2018-Jun-14 07:29N 50°30' W 000°02'610.3
2018-Jun-14 06:56N 50°31' E 000°07'511.1
2018-Jun-14 06:27N 50°33' E 000°15'611.9
2018-Jun-14 05:59N 50°34' E 000°23'612.6
2018-Jun-14 05:30N 50°36' E 000°32'713.0
2018-Jun-14 05:00N 50°39' E 000°41'713.1
2018-Jun-14 04:30N 50°43' E 000°50'612.9
2018-Jun-14 04:00N 50°46' E 000°58'612.5
2018-Jun-14 03:30N 50°50' E 001°06'612.2
2018-Jun-14 03:00N 50°53' E 001°14'611.3
2018-Jun-14 02:30N 50°57' E 001°21'510.7
2018-Jun-14 02:00N 51°01' E 001°26'5 9.6
2018-Jun-14 01:30N 51°05' E 001°31'4 8.5
2018-Jun-14 01:00N 51°08' E 001°36'4 8.0
2018-Jun-14 00:30N 51°11' E 001°41'4 8.8
2018-Jun-14 00:00N 51°14' E 001°46'5 9.6
2018-Jun-13 23:30N 51°18' E 001°49'510.4
2018-Jun-13 23:00N 51°23' E 001°54'611.4
2018-Jun-13 22:30N 51°28' E 001°58'612.3
2018-Jun-13 22:00N 51°32' E 002°05'713.0
2018-Jun-13 21:30N 51°37' E 002°12'713.6
2018-Jun-13 21:00N 51°42' E 002°20'713.9
2018-Jun-13 20:30N 51°47' E 002°27'714.0
2018-Jun-13 20:01N 51°52' E 002°35'713.9
2018-Jun-13 19:30N 51°57' E 002°43'713.3
2018-Jun-13 19:00N 52°01' E 002°51'612.8
2018-Jun-13 18:30N 52°02' E 003°01'612.4
2018-Jun-13 18:00N 52°03' E 003°11'612.3
2018-Jun-13 17:30N 52°03' E 003°21'612.3
2018-Jun-13 17:00N 52°03' E 003°31'612.1
2018-Jun-13 16:30N 52°03' E 003°42'611.4
2018-Jun-13 16:00N 52°03' E 003°51'4 7.2
2018-Jun-13 15:30N 52°02' E 003°56'4 8.5
2018-Jun-13 15:00N 51°60' E 004°02'4 8.8
2018-Jun-13 14:30N 51°58' E 004°08'4 7.4
2018-Jun-13 14:00N 51°56' E 004°13'3 6.3
2018-Jun-13 13:30N 51°54' E 004°17'3 5.7
2018-Jun-13 13:00N 51°54' E 004°22'1 1.4
2018-Jun-13 12:30N 51°53' E 004°22'0 0.2
2018-Jun-13 11:56N 51°53' E 004°22'0 0.0
2018-Jun-13 11:23N 51°53' E 004°22'0 0.0
2018-Jun-13 10:56N 51°53' E 004°22'0 0.0
2018-Jun-13 09:53N 51°53' E 004°22'0 0.0
2018-Jun-13 09:29N 51°53' E 004°22'0 0.0
2018-Jun-13 08:59N 51°53' E 004°22'0 0.0
2018-Jun-13 08:23N 51°53' E 004°22'0 0.0
2018-Jun-13 07:59N 51°53' E 004°22'0 0.0
2018-Jun-13 07:14N 51°53' E 004°22'0 0.0
2018-Jun-13 06:41N 51°53' E 004°22'0 0.0
2018-Jun-13 06:23N 51°53' E 004°22'0 0.0
2018-Jun-13 05:59N 51°53' E 004°22'0 0.0
2018-Jun-13 05:05N 51°53' E 004°22'0 0.1
2018-Jun-13 04:59N 51°53' E 004°22'0 0.0
2018-Jun-13 04:20N 51°53' E 004°22'0 0.0
2018-Jun-13 03:59N 51°53' E 004°22'0 0.0
2018-Jun-13 03:23N 51°53' E 004°22'0 0.0
2018-Jun-13 02:59N 51°53' E 004°22'0 0.0
2018-Jun-13 02:23N 51°53' E 004°22'0 0.0
2018-Jun-13 01:50N 51°53' E 004°22'0 0.0
2018-Jun-13 01:26N 51°53' E 004°22'0 0.0
2018-Jun-13 00:59N 51°53' E 004°22'0 0.0
2018-Jun-13 00:29N 51°53' E 004°22'0 0.0
2018-Jun-12 23:59N 51°53' E 004°22'0 0.0
2018-Jun-12 23:05N 51°53' E 004°22'0 0.1
2018-Jun-12 22:59N 51°53' E 004°22'0 0.0
2018-Jun-12 22:17N 51°53' E 004°22'0 0.0
2018-Jun-12 21:56N 51°53' E 004°22'0 0.0
2018-Jun-12 21:23N 51°53' E 004°22'0 0.0
2018-Jun-12 20:56N 51°53' E 004°22'0 0.0
2018-Jun-12 20:17N 51°53' E 004°22'0 0.0
2018-Jun-12 19:59N 51°53' E 004°22'0 0.0
2018-Jun-12 19:23N 51°53' E 004°22'0 0.0
2018-Jun-12 18:56N 51°53' E 004°22'0 0.0
2018-Jun-12 18:23N 51°53' E 004°22'0 0.0
2018-Jun-12 17:59N 51°53' E 004°22'0 0.0
2018-Jun-12 17:29N 51°53' E 004°22'0 0.0
2018-Jun-12 16:59N 51°53' E 004°22'0 0.0
2018-Jun-12 16:23N 51°53' E 004°22'0 0.0
2018-Jun-12 15:59N 51°53' E 004°22'0 0.0
2018-Jun-12 15:29N 51°53' E 004°22'0 0.0
2018-Jun-12 14:59N 51°53' E 004°22'0 0.0
2018-Jun-12 14:29N 51°53' E 004°22'0 0.0
2018-Jun-12 13:59N 51°53' E 004°22'0 0.0
2018-Jun-12 13:20N 51°53' E 004°22'0 0.0
2018-Jun-12 12:59N 51°53' E 004°22'0 0.0
2018-Jun-12 12:29N 51°53' E 004°22'0 0.0
2018-Jun-12 11:23N 51°53' E 004°22'0 0.0
2018-Jun-12 10:53N 51°53' E 004°22'0 0.0
2018-Jun-12 09:53N 51°53' E 004°22'0 0.0
2018-Jun-12 09:17N 51°53' E 004°22'0 0.0
2018-Jun-12 08:50N 51°53' E 004°22'0 0.0
2018-Jun-12 08:29N 51°53' E 004°22'0 0.0
2018-Jun-12 07:59N 51°53' E 004°22'0 0.0
2018-Jun-12 06:23N 51°53' E 004°22'0 0.0
2018-Jun-12 05:35N 51°53' E 004°22'0 0.1
2018-Jun-12 05:29N 51°53' E 004°22'0 0.0
2018-Jun-12 04:56N 51°53' E 004°22'0 0.0
2018-Jun-12 04:29N 51°53' E 004°22'0 0.0
2018-Jun-12 03:23N 51°53' E 004°22'0 0.0
2018-Jun-12 02:14N 51°53' E 004°22'0 0.0
2018-Jun-12 01:38N 51°53' E 004°22'0 0.0
2018-Jun-12 00:44N 51°53' E 004°22'0 0.0
2018-Jun-12 00:29N 51°53' E 004°22'0 0.0
2018-Jun-11 23:56N 51°53' E 004°22'0 0.0
2018-Jun-11 23:23N 51°53' E 004°22'0 0.0
2018-Jun-11 22:56N 51°53' E 004°22'0 0.0
2018-Jun-11 22:29N 51°53' E 004°22'0 0.0
2018-Jun-11 21:56N 51°53' E 004°22'0 0.0
2018-Jun-11 21:14N 51°53' E 004°22'0 0.0
2018-Jun-11 20:47N 51°53' E 004°22'0 0.0
2018-Jun-11 20:29N 51°53' E 004°22'0 0.0
2018-Jun-11 19:53N 51°53' E 004°22'0 0.0
2018-Jun-11 19:29N 51°53' E 004°22'0 0.0
2018-Jun-11 18:56N 51°53' E 004°22'0 0.0
2018-Jun-11 18:23N 51°53' E 004°22'0 0.0
2018-Jun-11 17:41N 51°53' E 004°22'0 0.0
2018-Jun-11 17:26N 51°53' E 004°22'0 0.0
2018-Jun-11 16:59N 51°53' E 004°22'0 0.0
2018-Jun-11 16:29N 51°53' E 004°22'0 0.0
2018-Jun-11 15:50N 51°53' E 004°22'0 0.0
2018-Jun-11 15:29N 51°53' E 004°22'0 0.0
2018-Jun-11 14:50N 51°53' E 004°22'0 0.0
2018-Jun-11 14:29N 51°53' E 004°22'0 0.0
2018-Jun-11 13:59N 51°53' E 004°22'0 0.0
2018-Jun-11 13:26N 51°53' E 004°22'0 0.0
2018-Jun-11 12:53N 51°53' E 004°22'0 0.0
2018-Jun-11 12:29N 51°53' E 004°22'0 0.0
2018-Jun-11 11:53N 51°53' E 004°22'0 0.0
2018-Jun-11 11:26N 51°53' E 004°22'0 0.0
2018-Jun-11 09:50N 51°53' E 004°22'0 0.0
2018-Jun-11 09:11N 51°53' E 004°22'0 0.0
2018-Jun-11 06:11N 51°53' E 004°22'0 0.0
2018-Jun-11 05:47N 51°53' E 004°22'0 0.0
2018-Jun-11 04:08N 51°53' E 004°22'0 0.0
2018-Jun-11 03:47N 51°53' E 004°22'0 0.0
2018-Jun-11 02:26N 51°53' E 004°22'0 0.0
2018-Jun-11 01:44N 51°53' E 004°22'0 0.0
2018-Jun-11 01:29N 51°53' E 004°22'0 0.0
2018-Jun-11 00:59N 51°53' E 004°22'0 0.0
2018-Jun-11 00:29N 51°53' E 004°22'0 0.0
2018-Jun-10 23:59N 51°53' E 004°22'0 0.0
2018-Jun-10 23:26N 51°53' E 004°22'0 0.0
2018-Jun-10 22:59N 51°53' E 004°22'0 0.0
2018-Jun-10 21:29N 51°53' E 004°22'0 0.0
2018-Jun-10 20:56N 51°53' E 004°22'0 0.0
2018-Jun-10 20:29N 51°53' E 004°22'0 0.0
2018-Jun-10 19:26N 51°53' E 004°22'0 0.0
2018-Jun-10 18:59N 51°53' E 004°22'0 0.0
2018-Jun-10 18:29N 51°53' E 004°22'0 0.0
2018-Jun-10 17:59N 51°53' E 004°22'0 0.0
2018-Jun-10 17:29N 51°53' E 004°22'0 0.0
2018-Jun-10 16:59N 51°53' E 004°22'0 0.0
2018-Jun-10 16:26N 51°53' E 004°22'0 0.0
2018-Jun-10 15:56N 51°53' E 004°22'0 0.0
2018-Jun-10 15:29N 51°53' E 004°22'0 0.0
2018-Jun-10 14:53N 51°53' E 004°22'0 0.0
2018-Jun-10 14:29N 51°53' E 004°22'0 0.0
2018-Jun-10 13:23N 51°53' E 004°22'0 0.0
2018-Jun-10 12:59N 51°53' E 004°22'0 0.0
2018-Jun-10 12:29N 51°53' E 004°22'0 0.0
2018-Jun-10 11:59N 51°53' E 004°22'0 0.0
2018-Jun-10 11:29N 51°53' E 004°22'0 0.0
2018-Jun-10 10:59N 51°53' E 004°22'0 0.0
2018-Jun-10 10:23N 51°53' E 004°22'0 0.0
2018-Jun-10 09:59N 51°53' E 004°22'0 0.0
2018-Jun-10 09:29N 51°53' E 004°22'0 0.0
2018-Jun-10 08:59N 51°53' E 004°22'0 0.0
2018-Jun-10 08:14N 51°53' E 004°22'0 0.0
2018-Jun-10 07:59N 51°53' E 004°22'0 0.0
2018-Jun-10 07:26N 51°53' E 004°22'0 0.0
2018-Jun-10 06:56N 51°53' E 004°22'0 0.0
2018-Jun-10 06:11N 51°53' E 004°22'0 0.0
2018-Jun-10 05:53N 51°53' E 004°22'0 0.0
2018-Jun-10 05:23N 51°53' E 004°22'0 0.0
2018-Jun-10 04:50N 51°53' E 004°22'0 0.0
2018-Jun-10 04:29N 51°53' E 004°22'0 0.0
2018-Jun-10 03:56N 51°53' E 004°22'0 0.0
2018-Jun-10 03:23N 51°53' E 004°22'0 0.0
2018-Jun-10 02:56N 51°53' E 004°22'0 0.0
2018-Jun-10 02:29N 51°53' E 004°22'0 0.0
2018-Jun-10 01:53N 51°53' E 004°22'0 0.0
2018-Jun-10 01:29N 51°53' E 004°22'0 0.0
2018-Jun-10 00:59N 51°53' E 004°22'0 0.0
2018-Jun-10 00:31N 51°53' E 004°22'0 0.0
2018-Jun-10 00:01N 51°53' E 004°22'0 0.9
2018-Jun-09 23:31N 51°54' E 004°22'1 1.4
2018-Jun-09 23:00N 51°54' E 004°21'4 7.5
2018-Jun-09 22:30N 51°55' E 004°15'611.0
2018-Jun-09 22:00N 51°58' E 004°08'510.6
2018-Jun-09 21:30N 51°60' E 003°60'510.6
2018-Jun-09 21:00N 51°60' E 003°51'4 8.6
2018-Jun-09 20:31N 51°59' E 003°45'5 9.3
2018-Jun-09 20:00N 51°58' E 003°37'510.6
2018-Jun-09 19:30N 51°57' E 003°29'510.1
2018-Jun-09 19:00N 51°56' E 003°21'510.5
2018-Jun-09 18:30N 51°55' E 003°12'510.7
2018-Jun-09 18:00N 51°54' E 003°04'511.0
2018-Jun-09 17:31N 51°54' E 002°55'4 8.7
2018-Jun-09 17:00N 51°57' E 002°50'612.3
2018-Jun-09 16:30N 52°03' E 002°52'612.4
2018-Jun-09 16:00N 52°08' E 002°57'1312.6
2018-Jun-09 15:00N 52°19' E 003°08'612.5
2018-Jun-09 14:30N 52°24' E 003°13'612.5
2018-Jun-09 14:00N 52°30' E 003°19'713.2
2018-Jun-09 13:30N 52°35' E 003°26'612.9
2018-Jun-09 13:00N 52°40' E 003°32'612.6
2018-Jun-09 12:30N 52°45' E 003°38'612.4
2018-Jun-09 12:00N 52°50' E 003°45'612.4
2018-Jun-09 11:30N 52°55' E 003°51'612.1
2018-Jun-09 11:00N 52°59' E 003°58'612.4
2018-Jun-09 10:30N 53°03' E 004°06'612.7
2018-Jun-09 10:00N 53°07' E 004°14'612.9
2018-Jun-09 09:30N 53°11' E 004°22'713.2
2018-Jun-09 09:00N 53°17' E 004°27'713.8
2018-Jun-09 08:31N 53°23' E 004°32'714.1
2018-Jun-09 08:00N 53°30' E 004°36'713.9
2018-Jun-09 07:31N 53°37' E 004°39'713.5
2018-Jun-09 07:00N 53°43' E 004°43'713.5
2018-Jun-09 06:29N 53°49' E 004°48'713.5
2018-Jun-09 06:00N 53°55' E 004°52'913.2
2018-Jun-09 05:17N 54°04' E 004°57'512.8
2018-Jun-09 04:55N 54°05' E 005°05'613.3
2018-Jun-09 04:26N 54°06' E 005°16'613.1
2018-Jun-09 04:00N 54°07' E 005°25'712.9
2018-Jun-09 03:29N 54°08' E 005°37'612.9
2018-Jun-09 03:01N 54°09' E 005°47'612.9
2018-Jun-09 02:31N 54°10' E 005°58'612.9
2018-Jun-09 02:00N 54°11' E 006°09'713.3
2018-Jun-09 01:29N 54°11' E 006°21'713.6
2018-Jun-09 00:59N 54°12' E 006°33'713.9
2018-Jun-09 00:30N 54°12' E 006°44'1114.1
2018-Jun-08 23:44N 54°12' E 007°02'414.4
2018-Jun-08 23:29N 54°12' E 007°09'714.4
2018-Jun-08 23:00N 54°12' E 007°20'714.5
2018-Jun-08 22:30N 54°12' E 007°33'713.9
2018-Jun-08 22:00N 54°09' E 007°43'714.3
2018-Jun-08 21:30N 54°05' E 007°53'714.0
2018-Jun-08 21:00N 54°02' E 008°04'612.7
2018-Jun-08 20:30N 54°00' E 008°14'713.6
2018-Jun-08 20:00N 53°59' E 008°26'613.1
2018-Jun-08 19:30N 53°58' E 008°37'510.7
2018-Jun-08 19:00N 53°53' E 008°42'4 8.8
2018-Jun-08 18:30N 53°51' E 008°48'4 8.8
2018-Jun-08 18:00N 53°51' E 008°55'4 8.6
2018-Jun-08 17:30N 53°52' E 009°02'4 8.4
2018-Jun-08 17:00N 53°53' E 009°09'4 7.1
2018-Jun-08 16:29N 53°53' E 009°15'511.1
2018-Jun-08 16:00N 53°49' E 009°22'612.5
2018-Jun-08 15:30N 53°44' E 009°27'612.7
2018-Jun-08 15:00N 53°38' E 009°32'612.7
2018-Jun-08 14:30N 53°34' E 009°41'612.1
2018-Jun-08 14:00N 53°33' E 009°51'4 8.0
2018-Jun-08 13:30N 53°32' E 009°57'1 1.3
2018-Jun-08 12:57N 53°32' E 009°58'0 0.0
2018-Jun-08 12:30N 53°32' E 009°58'0 0.0
2018-Jun-08 12:00N 53°32' E 009°58'0 0.0
2018-Jun-08 11:30N 53°32' E 009°58'0 0.0
2018-Jun-08 11:00N 53°32' E 009°58'0 0.0
2018-Jun-08 10:30N 53°32' E 009°58'0 0.0
2018-Jun-08 09:57N 53°32' E 009°58'0 0.0
2018-Jun-08 09:30N 53°32' E 009°58'0 0.0
2018-Jun-08 09:00N 53°32' E 009°58'0 0.0
2018-Jun-08 08:30N 53°32' E 009°58'0 0.0
2018-Jun-08 08:00N 53°32' E 009°58'0 0.0
2018-Jun-08 07:30N 53°32' E 009°58'0 0.0
2018-Jun-08 07:00N 53°32' E 009°58'0 0.0
2018-Jun-08 06:27N 53°32' E 009°58'0 0.0
2018-Jun-08 06:00N 53°32' E 009°58'0 0.0
2018-Jun-08 05:30N 53°32' E 009°58'0 0.0
2018-Jun-08 05:00N 53°32' E 009°58'0 0.0
2018-Jun-08 04:30N 53°32' E 009°58'0 0.0
2018-Jun-08 04:00N 53°32' E 009°58'0 0.0
2018-Jun-08 03:30N 53°32' E 009°58'0 0.0
2018-Jun-08 03:00N 53°32' E 009°58'0 0.0
2018-Jun-08 02:30N 53°32' E 009°58'0 0.0
2018-Jun-08 02:00N 53°32' E 009°58'0 0.0
2018-Jun-08 01:30N 53°32' E 009°58'0 0.0
2018-Jun-08 01:00N 53°32' E 009°58'0 0.0
2018-Jun-08 00:30N 53°32' E 009°58'0 0.0
2018-Jun-07 23:57N 53°32' E 009°58'0 0.0
2018-Jun-07 23:30N 53°32' E 009°58'0 0.0
2018-Jun-07 23:00N 53°32' E 009°58'0 0.0
2018-Jun-07 22:30N 53°32' E 009°58'0 0.0
2018-Jun-07 22:00N 53°32' E 009°58'0 0.0
2018-Jun-07 21:30N 53°32' E 009°58'0 0.0
2018-Jun-07 21:00N 53°32' E 009°58'0 0.0
2018-Jun-07 20:30N 53°32' E 009°58'0 0.0
2018-Jun-07 20:00N 53°32' E 009°58'0 0.0
2018-Jun-07 19:30N 53°32' E 009°58'0 0.0
2018-Jun-07 19:00N 53°32' E 009°58'0 0.0
2018-Jun-07 18:30N 53°32' E 009°58'0 0.0
2018-Jun-07 18:00N 53°32' E 009°58'0 0.0
2018-Jun-07 17:30N 53°32' E 009°58'0 0.0
2018-Jun-07 17:00N 53°32' E 009°58'0 0.0
2018-Jun-07 16:30N 53°32' E 009°58'0 0.0
2018-Jun-07 16:00N 53°32' E 009°58'0 0.0
2018-Jun-07 15:30N 53°32' E 009°58'0 0.0
2018-Jun-07 15:00N 53°32' E 009°58'0 0.0
2018-Jun-07 14:30N 53°32' E 009°58'0 0.0
2018-Jun-07 14:00N 53°32' E 009°58'0 0.0
2018-Jun-07 13:30N 53°32' E 009°58'0 0.0
2018-Jun-07 13:00N 53°32' E 009°58'0 0.0
2018-Jun-07 12:30N 53°32' E 009°58'0 0.0
2018-Jun-07 12:00N 53°32' E 009°58'0 0.0
2018-Jun-07 11:30N 53°32' E 009°58'0 0.0
2018-Jun-07 11:00N 53°32' E 009°58'0 0.0
2018-Jun-07 10:30N 53°32' E 009°58'0 0.0
2018-Jun-07 10:00N 53°32' E 009°58'0 0.0
2018-Jun-07 09:30N 53°32' E 009°58'0 0.0
2018-Jun-07 08:54N 53°32' E 009°58'0 0.0
2018-Jun-07 08:30N 53°32' E 009°58'0 0.0
2018-Jun-07 08:00N 53°32' E 009°58'0 0.0
2018-Jun-07 07:30N 53°32' E 009°58'0 0.0
2018-Jun-07 07:00N 53°32' E 009°58'0 0.0
2018-Jun-07 06:30N 53°32' E 009°58'0 0.0
2018-Jun-07 06:00N 53°32' E 009°58'0 0.0
2018-Jun-07 05:30N 53°32' E 009°58'0 0.0
2018-Jun-07 05:00N 53°32' E 009°58'0 0.0
2018-Jun-07 04:31N 53°32' E 009°58'0 0.0
2018-Jun-07 04:00N 53°32' E 009°58'1 1.3
2018-Jun-07 03:31N 53°32' E 009°57'1 2.1
2018-Jun-07 03:01N 53°31' E 009°56'1 2.2
2018-Jun-07 02:29N 53°30' E 009°57'0 0.0
2018-Jun-07 01:59N 53°30' E 009°57'0 0.0
2018-Jun-07 01:29N 53°30' E 009°57'0 0.0
2018-Jun-07 00:59N 53°30' E 009°57'0 0.0
2018-Jun-07 00:29N 53°30' E 009°57'0 0.0
2018-Jun-06 23:59N 53°30' E 009°57'0 0.0
2018-Jun-06 23:29N 53°30' E 009°57'0 0.0
2018-Jun-06 22:59N 53°30' E 009°57'0 0.0
2018-Jun-06 22:29N 53°30' E 009°57'0 0.0
2018-Jun-06 21:59N 53°30' E 009°57'0 0.0
2018-Jun-06 21:29N 53°30' E 009°57'0 0.0
2018-Jun-06 20:59N 53°30' E 009°57'0 0.0
2018-Jun-06 20:29N 53°30' E 009°57'0 0.0
2018-Jun-06 19:59N 53°30' E 009°57'0 0.0
2018-Jun-06 19:29N 53°30' E 009°57'0 0.0
2018-Jun-06 18:59N 53°30' E 009°57'0 0.0
2018-Jun-06 18:29N 53°30' E 009°57'0 0.0
2018-Jun-06 17:56N 53°30' E 009°57'0 0.0
2018-Jun-06 17:29N 53°30' E 009°57'0 0.0
2018-Jun-06 16:56N 53°30' E 009°57'0 0.0
2018-Jun-06 16:26N 53°30' E 009°57'0 0.0
2018-Jun-06 15:59N 53°30' E 009°57'0 0.0
2018-Jun-06 15:29N 53°30' E 009°57'0 0.0
2018-Jun-06 14:59N 53°30' E 009°57'0 0.0
2018-Jun-06 14:29N 53°30' E 009°57'0 0.0
2018-Jun-06 13:59N 53°30' E 009°57'0 0.0
2018-Jun-06 13:29N 53°30' E 009°57'0 0.0
2018-Jun-06 12:56N 53°30' E 009°57'0 0.0
2018-Jun-06 12:29N 53°30' E 009°57'0 0.0
2018-Jun-06 11:59N 53°30' E 009°57'0 0.0
2018-Jun-06 11:26N 53°30' E 009°57'0 0.0
2018-Jun-06 10:59N 53°30' E 009°57'0 0.0
2018-Jun-06 10:29N 53°30' E 009°57'0 0.0
2018-Jun-06 09:59N 53°30' E 009°57'0 0.0
2018-Jun-06 09:29N 53°30' E 009°57'0 0.0
2018-Jun-06 08:59N 53°30' E 009°57'0 0.0
2018-Jun-06 08:29N 53°30' E 009°57'0 0.0
2018-Jun-06 07:59N 53°30' E 009°57'0 0.0
2018-Jun-06 07:29N 53°30' E 009°57'0 0.0
2018-Jun-06 06:56N 53°30' E 009°57'0 0.0
2018-Jun-06 06:29N 53°30' E 009°57'0 0.0
2018-Jun-06 05:59N 53°30' E 009°57'0 0.0
2018-Jun-06 05:29N 53°30' E 009°57'0 0.0
2018-Jun-06 04:59N 53°30' E 009°57'0 0.0
2018-Jun-06 04:26N 53°30' E 009°57'0 0.0
2018-Jun-06 03:59N 53°30' E 009°57'0 0.0
2018-Jun-06 03:29N 53°30' E 009°57'0 0.0
2018-Jun-06 02:59N 53°30' E 009°57'0 0.0
2018-Jun-06 02:26N 53°30' E 009°57'0 0.0
2018-Jun-06 01:59N 53°30' E 009°57'0 0.0
2018-Jun-06 01:29N 53°30' E 009°57'0 0.0
2018-Jun-06 00:59N 53°30' E 009°57'0 0.0
2018-Jun-06 00:29N 53°30' E 009°57'0 0.0
2018-Jun-05 23:59N 53°30' E 009°57'0 0.0
2018-Jun-05 23:29N 53°30' E 009°57'0 0.0
2018-Jun-05 22:59N 53°30' E 009°57'0 0.0
2018-Jun-05 22:29N 53°30' E 009°57'0 0.0
2018-Jun-05 21:56N 53°30' E 009°57'0 0.0
2018-Jun-05 21:29N 53°30' E 009°57'0 0.0
2018-Jun-05 20:59N 53°30' E 009°57'0 0.0
2018-Jun-05 20:29N 53°30' E 009°57'0 0.0
2018-Jun-05 19:59N 53°30' E 009°57'0 0.0
2018-Jun-05 19:23N 53°30' E 009°57'0 0.0
2018-Jun-05 18:59N 53°30' E 009°57'0 0.0
2018-Jun-05 18:30N 53°30' E 009°57'0 0.0
2018-Jun-05 18:00N 53°30' E 009°57'1 1.8
2018-Jun-05 17:30N 53°31' E 009°57'3 5.3
2018-Jun-05 17:00N 53°33' E 009°53'5 9.7
2018-Jun-05 16:30N 53°34' E 009°45'612.0
2018-Jun-05 16:00N 53°36' E 009°36'611.5
2018-Jun-05 15:30N 53°41' E 009°30'713.3
2018-Jun-05 15:00N 53°46' E 009°24'714.0
2018-Jun-05 14:30N 53°52' E 009°17'612.1
2018-Jun-05 14:00N 53°53' E 009°07'713.0
2018-Jun-05 13:30N 53°51' E 008°56'612.7
2018-Jun-05 13:00N 53°51' E 008°46'713.3
2018-Jun-05 12:30N 53°56' E 008°39'714.6
2018-Jun-05 12:00N 53°59' E 008°27'815.1
2018-Jun-05 11:30N 53°60' E 008°14'714.0
2018-Jun-05 11:00N 54°00' E 008°03'612.8
2018-Jun-05 10:30N 54°03' E 007°53'611.1
2018-Jun-05 10:00N 54°06' E 007°45'2 3.7
2018-Jun-05 09:30N 54°06' E 007°42'1 2.1
2018-Jun-05 09:00N 54°07' E 007°40'3 6.4
2018-Jun-05 08:30N 54°08' E 007°35'5 8.9
2018-Jun-05 08:00N 54°09' E 007°28'510.4
2018-Jun-05 07:30N 54°09' E 007°19'510.5
2018-Jun-05 07:00N 54°09' E 007°10'510.5
2018-Jun-05 06:30N 54°09' E 007°01'510.6
2018-Jun-05 06:00N 54°09' E 006°52'611.5
2018-Jun-05 05:29N 54°09' E 006°42'611.8
2018-Jun-05 05:00N 54°09' E 006°32'611.8
2018-Jun-05 04:30N 54°08' E 006°22'611.8
2018-Jun-05 04:00N 54°08' E 006°12'1412.1
2018-Jun-05 02:48N 54°06' E 005°48'2512.5
2018-Jun-05 00:47N 54°02' E 005°05'512.6
2018-Jun-05 00:21N 54°02' E 004°56'412.6
2018-Jun-05 00:00N 53°60' E 004°49'611.5
2018-Jun-04 23:30N 53°57' E 004°41'712.5
2018-Jun-04 22:59N 53°53' E 004°32'612.5
2018-Jun-04 22:30N 53°48' E 004°25'  

Dump ship's entire track history